Time;durP1;ratioP1;P1;durP2;ratioP2;P2;SDS_P1;SDS_P2;PMS_P1;PMS_P2;Temp;Humidity;BMP_temperature;BMP_pressure;BME280_temperature;BME280_humidity;BME280_pressure;Samples;Min_cycle;Max_cycle;Signal;HPM_P1;HPM_P2
2024/02/03 00:00:33;;;;;;;;;26.00;23.00;;;;;;;;5068041;28;10679;-80
2024/02/03 00:03:01;;;;;;;;;23.75;21.50;;;;;;;;5068294;28;10935;-79
2024/02/03 00:05:30;;;;;;;;;26.50;25.50;;;;;;;;5071438;28;10673;-78
2024/02/03 00:07:57;;;;;;;;;22.00;20.25;;;;;;;;5073714;28;11156;-81
2024/02/03 00:10:25;;;;;;;;;28.00;24.75;;;;;;;;5072725;28;10761;-79
2024/02/03 00:12:52;;;;;;;;;21.25;20.75;;;;;;;;5072624;28;10735;-80
2024/02/03 00:15:21;;;;;;;;;22.00;20.25;;;;;;;;5072387;28;10541;-83
2024/02/03 00:17:48;;;;;;;;;22.25;20.50;;;;;;;;5055943;28;10587;-80
2024/02/03 00:20:16;;;;;;;;;22.00;22.00;;;;;;;;5072273;28;10606;-81
2024/02/03 00:22:45;;;;;;;;;19.25;19.25;;;;;;;;5071355;28;10665;-79
2024/02/03 00:25:13;;;;;;;;;19.25;16.00;;;;;;;;5072589;28;10408;-77
2024/02/03 00:27:40;;;;;;;;;15.25;15.25;;;;;;;;5071718;28;10533;-84
2024/02/03 00:30:09;;;;;;;;;19.50;17.50;;;;;;;;5068771;28;10311;-80
2024/02/03 00:32:37;;;;;;;;;20.50;19.00;;;;;;;;5071235;28;10267;-80
2024/02/03 00:35:05;;;;;;;;;17.50;17.50;;;;;;;;5068064;28;10451;-85
2024/02/03 00:37:32;;;;;;;;;16.00;16.00;;;;;;;;5070932;28;10350;-80
2024/02/03 00:40:01;;;;;;;;;16.25;14.25;;;;;;;;5064983;28;10264;-84
2024/02/03 00:42:28;;;;;;;;;14.50;14.50;;;;;;;;5070408;28;10338;-80
2024/02/03 00:44:55;;;;;;;;;21.75;18.25;;;;;;;;5070645;28;10328;-80
2024/02/03 00:47:22;;;;;;;;;15.25;13.00;;;;;;;;5070815;28;10243;-83
2024/02/03 00:49:50;;;;;;;;;14.75;12.50;;;;;;;;5070864;28;10259;-79
2024/02/03 00:52:18;;;;;;;;;12.25;12.25;;;;;;;;5069798;28;10331;-85
2024/02/03 00:54:45;;;;;;;;;14.50;11.75;;;;;;;;5064206;28;10164;-81
2024/02/03 00:57:14;;;;;;;;;9.50;9.50;;;;;;;;5070947;28;10187;-83
2024/02/03 00:59:41;;;;;;;;;14.25;12.25;;;;;;;;5069575;28;10246;-80
2024/02/03 01:02:08;;;;;;;;;16.75;13.50;;;;;;;;5061072;28;11022;-80
2024/02/03 01:04:36;;;;;;;;;10.25;10.25;;;;;;;;5070130;28;10177;-80
2024/02/03 01:07:03;;;;;;;;;14.75;13.25;;;;;;;;5070385;28;10190;-80
2024/02/03 01:09:30;;;;;;;;;15.25;14.50;;;;;;;;5070029;28;10360;-83
2024/02/03 01:11:58;;;;;;;;;10.00;10.00;;;;;;;;5070302;28;10317;-82
2024/02/03 01:14:26;;;;;;;;;15.75;10.50;;;;;;;;5067319;28;10251;-83
2024/02/03 01:16:54;;;;;;;;;15.00;13.25;;;;;;;;5064744;28;10273;-85
2024/02/03 01:19:21;;;;;;;;;12.50;12.50;;;;;;;;5063214;28;10361;-85
2024/02/03 01:21:51;;;;;;;;;15.75;14.00;;;;;;;;5064797;28;10154;-84
2024/02/03 01:24:19;;;;;;;;;13.25;12.00;;;;;;;;5061945;28;10287;-83
2024/02/03 01:26:46;;;;;;;;;6.50;6.50;;;;;;;;5070280;28;10087;-88
2024/02/03 01:29:13;;;;;;;;;15.50;14.00;;;;;;;;5068405;28;10174;-87
2024/02/03 01:31:42;;;;;;;;;15.25;10.50;;;;;;;;5065423;28;10183;-83
2024/02/03 01:34:12;;;;;;;;;16.00;14.00;;;;;;;;5061356;28;10192;-83
2024/02/03 01:36:40;;;;;;;;;8.75;8.75;;;;;;;;5064113;28;10176;-80
2024/02/03 01:39:08;;;;;;;;;10.75;10.75;;;;;;;;5067480;28;10182;-83
2024/02/03 01:41:35;;;;;;;;;9.00;9.00;;;;;;;;5063094;28;10336;-85
2024/02/03 01:44:03;;;;;;;;;12.00;12.00;;;;;;;;5060729;28;10138;-86
2024/02/03 01:46:33;;;;;;;;;13.50;13.50;;;;;;;;5069816;28;10623;-80
2024/02/03 01:49:03;;;;;;;;;10.75;10.75;;;;;;;;5070592;28;10088;-82
2024/02/03 01:51:31;;;;;;;;;12.00;12.00;;;;;;;;5066837;28;10180;-78
2024/02/03 01:53:59;;;;;;;;;11.75;11.75;;;;;;;;5066105;28;10126;-78
2024/02/03 01:56:27;;;;;;;;;11.25;11.25;;;;;;;;5069403;28;10296;-79
2024/02/03 01:58:57;;;;;;;;;11.50;11.00;;;;;;;;5070846;28;10303;-80
2024/02/03 02:01:25;;;;;;;;;12.75;11.00;;;;;;;;5070089;28;10184;-79
2024/02/03 02:03:53;;;;;;;;;13.75;12.00;;;;;;;;5069824;28;11064;-82
2024/02/03 02:06:21;;;;;;;;;11.00;10.50;;;;;;;;5067420;28;10098;-79
2024/02/03 02:08:51;;;;;;;;;8.50;8.50;;;;;;;;5065967;28;9995;-82
2024/02/03 02:11:21;;;;;;;;;11.50;11.50;;;;;;;;5060091;28;10162;-80
2024/02/03 02:13:50;;;;;;;;;13.75;12.25;;;;;;;;5068375;28;10096;-81
2024/02/03 02:16:17;;;;;;;;;10.75;10.75;;;;;;;;5068947;28;10328;-81
2024/02/03 02:18:44;;;;;;;;;10.25;10.25;;;;;;;;5068372;28;10177;-80
2024/02/03 02:21:13;;;;;;;;;10.50;9.75;;;;;;;;5068735;28;10325;-78
2024/02/03 02:23:54;;;;;;;;;10.25;10.25;;;;;;;;5066632;28;10089;-78
2024/02/03 02:26:21;;;;;;;;;8.75;8.75;;;;;;;;5065530;28;10090;-84
2024/02/03 02:28:49;;;;;;;;;15.50;13.75;;;;;;;;5060510;28;10095;-85
2024/02/03 02:31:16;;;;;;;;;9.75;9.75;;;;;;;;5055814;28;10042;-87
2024/02/03 02:33:44;;;;;;;;;12.00;12.00;;;;;;;;5059652;28;10021;-90
2024/02/03 02:36:13;;;;;;;;;13.25;11.75;;;;;;;;5066491;28;10011;-81
2024/02/03 02:38:43;;;;;;;;;9.25;8.75;;;;;;;;5071779;28;10204;-88
2024/02/03 02:41:19;;;;;;;;;12.75;11.50;;;;;;;;5066640;28;10145;-87
2024/02/03 02:43:46;;;;;;;;;10.25;9.75;;;;;;;;5068768;28;10104;-80
2024/02/03 02:46:15;;;;;;;;;11.25;10.50;;;;;;;;5067135;28;10816;-80
2024/02/03 02:48:42;;;;;;;;;10.00;10.00;;;;;;;;5059227;28;10368;-83
2024/02/03 02:51:10;;;;;;;;;11.00;9.00;;;;;;;;5065385;28;10794;-86
2024/02/03 02:53:39;;;;;;;;;11.50;11.25;;;;;;;;5068109;28;10166;-87
2024/02/03 02:56:06;;;;;;;;;12.50;10.00;;;;;;;;5066351;28;10997;-85
2024/02/03 02:58:34;;;;;;;;;15.00;12.50;;;;;;;;5067667;28;10049;-80
2024/02/03 03:01:03;;;;;;;;;10.75;10.50;;;;;;;;5068856;28;10285;-87
2024/02/03 03:03:31;;;;;;;;;11.75;9.75;;;;;;;;5072784;28;10167;-83
2024/02/03 03:05:58;;;;;;;;;12.50;12.50;;;;;;;;5073893;28;10058;-79
2024/02/03 03:08:25;;;;;;;;;12.25;12.25;;;;;;;;5071280;28;10199;-84
2024/02/03 03:10:54;;;;;;;;;12.00;10.25;;;;;;;;5069134;28;10186;-86
2024/02/03 03:13:21;;;;;;;;;10.50;10.50;;;;;;;;5066964;28;10150;-86
2024/02/03 03:15:49;;;;;;;;;17.50;15.00;;;;;;;;5068756;28;10157;-85
2024/02/03 03:18:16;;;;;;;;;12.00;11.50;;;;;;;;5066610;28;10367;-84
2024/02/03 03:20:43;;;;;;;;;8.25;8.25;;;;;;;;5068577;28;10046;-86
2024/02/03 03:23:11;;;;;;;;;14.00;14.00;;;;;;;;5068869;28;10277;-84
2024/02/03 03:25:38;;;;;;;;;19.50;15.00;;;;;;;;5068311;28;10306;-87
2024/02/03 03:28:07;;;;;;;;;13.75;13.75;;;;;;;;5068455;28;10285;-81
2024/02/03 03:30:34;;;;;;;;;13.50;11.25;;;;;;;;5062726;28;10044;-86
2024/02/03 03:33:01;;;;;;;;;17.50;14.75;;;;;;;;5068685;28;10147;-87
2024/02/03 03:35:29;;;;;;;;;14.50;14.00;;;;;;;;5069215;28;10019;-85
2024/02/03 03:37:57;;;;;;;;;11.75;11.75;;;;;;;;5073270;28;10180;-82
2024/02/03 03:40:24;;;;;;;;;11.25;10.25;;;;;;;;5070137;28;10029;-81
2024/02/03 03:42:52;;;;;;;;;14.25;12.75;;;;;;;;5074458;28;10001;-83
2024/02/03 03:45:20;;;;;;;;;10.25;10.25;;;;;;;;5070240;28;10167;-85
2024/02/03 03:47:47;;;;;;;;;14.00;10.75;;;;;;;;5075470;28;10897;-82
2024/02/03 03:50:15;;;;;;;;;10.25;10.25;;;;;;;;5070384;28;10086;-80
2024/02/03 03:52:45;;;;;;;;;12.75;9.75;;;;;;;;5074608;28;10960;-80
2024/02/03 03:55:13;;;;;;;;;12.50;12.25;;;;;;;;5064153;28;10286;-80
2024/02/03 03:57:40;;;;;;;;;12.00;12.00;;;;;;;;5069596;28;10194;-79
2024/02/03 04:00:09;;;;;;;;;14.00;10.75;;;;;;;;5067944;28;10204;-84
2024/02/03 04:02:39;;;;;;;;;12.50;11.00;;;;;;;;5071956;28;10346;-87
2024/02/03 04:05:06;;;;;;;;;9.50;9.50;;;;;;;;5064283;28;10186;-87
2024/02/03 04:07:34;;;;;;;;;10.75;10.75;;;;;;;;5063462;28;10182;-81
2024/02/03 04:10:01;;;;;;;;;10.25;9.75;;;;;;;;5070296;28;10006;-89
2024/02/03 04:12:28;;;;;;;;;9.25;9.00;;;;;;;;5072111;28;10172;-90
2024/02/03 04:14:56;;;;;;;;;13.25;10.50;;;;;;;;5071290;28;11001;-87
2024/02/03 04:17:23;;;;;;;;;10.00;10.00;;;;;;;;5063590;28;10166;-89
2024/02/03 04:19:51;;;;;;;;;10.75;10.75;;;;;;;;5058728;28;10209;-81
2024/02/03 04:22:19;;;;;;;;;11.50;11.50;;;;;;;;5066467;28;10095;-83
2024/02/03 04:24:46;;;;;;;;;15.00;13.50;;;;;;;;5068152;28;10089;-84
2024/02/03 04:27:16;;;;;;;;;8.25;8.25;;;;;;;;5073211;28;10205;-80
2024/02/03 04:29:45;;;;;;;;;9.75;9.75;;;;;;;;5060123;28;9991;-79
2024/02/03 04:32:13;;;;;;;;;11.00;11.00;;;;;;;;5061145;28;10119;-80
2024/02/03 04:34:41;;;;;;;;;7.75;7.75;;;;;;;;5066271;28;9958;-82
2024/02/03 04:37:09;;;;;;;;;12.50;8.75;;;;;;;;5066243;28;10227;-80
2024/02/03 04:39:36;;;;;;;;;11.75;11.25;;;;;;;;5068120;28;10901;-83
2024/02/03 04:42:04;;;;;;;;;10.25;10.25;;;;;;;;5069531;28;10048;-85
2024/02/03 04:44:31;;;;;;;;;13.00;11.00;;;;;;;;5069932;28;10809;-81
2024/02/03 04:46:58;;;;;;;;;16.25;12.50;;;;;;;;5069345;28;10064;-80
2024/02/03 04:49:26;;;;;;;;;12.00;10.50;;;;;;;;5058512;28;10045;-80
2024/02/03 04:51:53;;;;;;;;;10.50;10.50;;;;;;;;5067429;28;10026;-82
2024/02/03 04:54:21;;;;;;;;;8.50;8.50;;;;;;;;5067734;28;10026;-80
2024/02/03 04:56:49;;;;;;;;;11.50;10.00;;;;;;;;5069665;28;10134;-80
2024/02/03 04:59:16;;;;;;;;;11.50;11.50;;;;;;;;5070610;28;9852;-86
2024/02/03 05:01:43;;;;;;;;;13.50;12.25;;;;;;;;5067088;28;9868;-81
2024/02/03 05:04:11;;;;;;;;;9.50;9.00;;;;;;;;5070531;28;9934;-85
2024/02/03 05:06:38;;;;;;;;;15.25;15.00;;;;;;;;5069910;28;10125;-84
2024/02/03 05:09:07;;;;;;;;;13.00;11.00;;;;;;;;5069965;28;10141;-86
2024/02/03 05:11:36;;;;;;;;;6.75;6.75;;;;;;;;5068130;28;10840;-85
2024/02/03 05:14:03;;;;;;;;;20.00;14.50;;;;;;;;5070028;28;10196;-86
2024/02/03 05:16:30;;;;;;;;;20.50;18.00;;;;;;;;5069533;28;10155;-84
2024/02/03 05:18:58;;;;;;;;;14.00;13.00;;;;;;;;5069858;28;10252;-83
2024/02/03 05:21:25;;;;;;;;;16.50;16.00;;;;;;;;5070161;28;10013;-82
2024/02/03 05:23:53;;;;;;;;;21.25;19.50;;;;;;;;5070687;28;10195;-82
2024/02/03 05:26:20;;;;;;;;;21.00;18.25;;;;;;;;5071620;28;10333;-81
2024/02/03 05:28:49;;;;;;;;;19.75;19.75;;;;;;;;5074166;28;10174;-86
2024/02/03 05:31:21;;;;;;;;;21.00;13.50;;;;;;;;5069292;28;10407;-81
2024/02/03 05:33:48;;;;;;;;;20.25;20.25;;;;;;;;5075225;28;10265;-81
2024/02/03 05:36:15;;;;;;;;;16.00;12.50;;;;;;;;5074844;28;10410;-82
2024/02/03 05:38:44;;;;;;;;;17.50;17.00;;;;;;;;5074296;28;10178;-81
2024/02/03 05:41:11;;;;;;;;;15.75;13.75;;;;;;;;5062022;28;10186;-86
2024/02/03 05:43:38;;;;;;;;;17.75;13.25;;;;;;;;5079823;28;10163;-83
2024/02/03 05:46:08;;;;;;;;;17.00;15.75;;;;;;;;5080904;28;10344;-86
2024/02/03 05:48:36;;;;;;;;;18.00;15.50;;;;;;;;5068205;28;10198;-84
2024/02/03 05:51:03;;;;;;;;;14.75;14.75;;;;;;;;5069931;28;10206;-85
2024/02/03 05:53:35;;;;;;;;;12.25;12.25;;;;;;;;5066667;28;10256;-85
2024/02/03 05:56:02;;;;;;;;;12.75;12.75;;;;;;;;5069067;28;10113;-81
2024/02/03 05:58:29;;;;;;;;;14.00;9.25;;;;;;;;5069221;28;10853;-88
2024/02/03 06:00:57;;;;;;;;;14.75;12.50;;;;;;;;5068111;28;10235;-81
2024/02/03 06:03:25;;;;;;;;;14.75;12.75;;;;;;;;5068757;28;10002;-84
2024/02/03 06:05:53;;;;;;;;;12.50;12.25;;;;;;;;5067941;28;10080;-85
2024/02/03 06:08:20;;;;;;;;;12.75;10.00;;;;;;;;5068071;28;10880;-85
2024/02/03 06:10:47;;;;;;;;;14.50;11.50;;;;;;;;5067350;28;10307;-86
2024/02/03 06:13:20;;;;;;;;;10.75;10.25;;;;;;;;5068034;28;10354;-84
2024/02/03 06:15:48;;;;;;;;;12.00;12.00;;;;;;;;5071685;28;10199;-88
2024/02/03 06:18:15;;;;;;;;;10.50;9.00;;;;;;;;5071181;28;10123;-86
2024/02/03 06:20:44;;;;;;;;;11.75;9.75;;;;;;;;5070570;28;10127;-82
2024/02/03 06:23:11;;;;;;;;;13.75;13.75;;;;;;;;5068098;28;10163;-90
2024/02/03 06:25:38;;;;;;;;;11.00;11.00;;;;;;;;5069485;28;10213;-89
2024/02/03 06:28:07;;;;;;;;;9.00;9.00;;;;;;;;5066218;28;10150;-75
2024/02/03 06:30:34;;;;;;;;;11.00;11.00;;;;;;;;5067381;28;9996;-77
2024/02/03 06:33:02;;;;;;;;;9.00;9.00;;;;;;;;5067428;28;10020;-78
2024/02/03 06:35:29;;;;;;;;;10.00;10.00;;;;;;;;5074868;28;10038;-75
2024/02/03 06:37:57;;;;;;;;;11.00;11.00;;;;;;;;5065987;28;10026;-77
2024/02/03 06:40:25;;;;;;;;;11.00;11.00;;;;;;;;5055749;28;10036;-73
2024/02/03 06:42:52;;;;;;;;;11.25;9.50;;;;;;;;5068420;28;10096;-73
2024/02/03 06:45:21;;;;;;;;;12.25;10.75;;;;;;;;5069443;28;10030;-75
2024/02/03 06:47:49;;;;;;;;;10.50;8.50;;;;;;;;5067591;28;10242;-77
2024/02/03 06:50:16;;;;;;;;;10.75;10.75;;;;;;;;5067193;28;10042;-78
2024/02/03 06:52:44;;;;;;;;;9.25;9.25;;;;;;;;5067602;28;10013;-77
2024/02/03 06:55:12;;;;;;;;;11.25;11.00;;;;;;;;5065840;28;9928;-75
2024/02/03 06:57:40;;;;;;;;;11.00;11.00;;;;;;;;5067381;28;10004;-74
2024/02/03 07:00:10;;;;;;;;;10.75;10.75;;;;;;;;5063073;28;10045;-74
2024/02/03 07:02:37;;;;;;;;;10.75;10.75;;;;;;;;5067489;28;10141;-76
2024/02/03 07:05:04;;;;;;;;;10.75;8.25;;;;;;;;5067040;28;9913;-75
2024/02/03 07:07:32;;;;;;;;;12.00;10.50;;;;;;;;5067495;28;10076;-74
2024/02/03 07:09:59;;;;;;;;;7.50;5.00;;;;;;;;5066885;28;9962;-75
2024/02/03 07:12:28;;;;;;;;;12.50;11.00;;;;;;;;5069186;28;9921;-75
2024/02/03 07:14:55;;;;;;;;;11.75;10.50;;;;;;;;5071529;28;10026;-75
2024/02/03 07:17:23;;;;;;;;;9.00;6.50;;;;;;;;5072526;28;10015;-74
2024/02/03 07:19:50;;;;;;;;;13.00;11.50;;;;;;;;5072356;28;10115;-74
2024/02/03 07:22:17;;;;;;;;;11.75;10.25;;;;;;;;5074256;28;10090;-73
2024/02/03 07:24:44;;;;;;;;;10.00;7.50;;;;;;;;5072292;28;10014;-75
2024/02/03 07:27:11;;;;;;;;;8.50;7.50;;;;;;;;5070878;28;10014;-74
2024/02/03 07:29:41;;;;;;;;;7.50;7.50;;;;;;;;5071458;28;9785;-72
2024/02/03 07:32:08;;;;;;;;;11.75;9.25;;;;;;;;5072090;28;9825;-73
2024/02/03 07:34:35;;;;;;;;;4.25;4.25;;;;;;;;5071883;28;10054;-75
2024/02/03 07:37:02;;;;;;;;;10.00;10.00;;;;;;;;5071166;28;9886;-74
2024/02/03 07:39:30;;;;;;;;;7.75;7.75;;;;;;;;5063773;28;9856;-83
2024/02/03 07:41:57;;;;;;;;;11.00;10.50;;;;;;;;5058262;28;9874;-76
2024/02/03 07:44:24;;;;;;;;;7.25;7.25;;;;;;;;5070785;28;9945;-80
2024/02/03 07:46:53;;;;;;;;;8.50;8.50;;;;;;;;5070532;28;9792;-78
2024/02/03 07:49:20;;;;;;;;;6.00;6.00;;;;;;;;5070716;28;9842;-84
2024/02/03 07:51:47;;;;;;;;;11.25;10.00;;;;;;;;5070040;28;9958;-78
2024/02/03 07:54:16;;;;;;;;;6.25;6.25;;;;;;;;5071160;28;9984;-84
2024/02/03 07:56:43;;;;;;;;;6.50;6.50;;;;;;;;5062398;28;10624;-80
2024/02/03 07:59:11;;;;;;;;;5.00;5.00;;;;;;;;5070469;28;9848;-78
2024/02/03 08:01:38;;;;;;;;;6.75;5.25;;;;;;;;5070752;28;9631;-78
2024/02/03 08:04:08;;;;;;;;;5.00;3.75;;;;;;;;5065587;28;9687;-76
2024/02/03 08:06:34;;;;;;;;;3.00;3.00;;;;;;;;5056367;28;9779;-78
2024/02/03 08:09:05;;;;;;;;;4.75;4.75;;;;;;;;5071329;28;9812;-81
2024/02/03 08:11:32;;;;;;;;;4.50;4.50;;;;;;;;5066665;28;9597;-77
2024/02/03 08:14:02;;;;;;;;;5.00;5.00;;;;;;;;5070203;28;9753;-77
2024/02/03 08:16:32;;;;;;;;;6.00;5.00;;;;;;;;5071528;28;9836;-78
2024/02/03 08:18:59;;;;;;;;;5.50;3.75;;;;;;;;5062059;28;9886;-76
2024/02/03 08:21:31;;;;;;;;;6.25;6.25;;;;;;;;5070095;28;9822;-74
2024/02/03 08:24:00;;;;;;;;;4.25;4.25;;;;;;;;5056389;28;9932;-74
2024/02/03 08:26:28;;;;;;;;;4.75;3.00;;;;;;;;5065880;28;9833;-81
2024/02/03 08:28:55;;;;;;;;;3.00;3.00;;;;;;;;5055845;28;9698;-77
2024/02/03 08:31:22;;;;;;;;;5.25;5.25;;;;;;;;5057414;28;9598;-77
2024/02/03 08:33:49;;;;;;;;;3.75;3.75;;;;;;;;5059710;28;9779;-77
2024/02/03 08:36:16;;;;;;;;;8.50;4.75;;;;;;;;5070336;28;9706;-78
2024/02/03 08:38:45;;;;;;;;;4.00;4.00;;;;;;;;5069234;28;9712;-80
2024/02/03 08:41:13;;;;;;;;;4.50;4.50;;;;;;;;5058261;28;9915;-78
2024/02/03 08:43:41;;;;;;;;;4.75;2.75;;;;;;;;5068203;28;9681;-78
2024/02/03 08:46:09;;;;;;;;;3.00;3.00;;;;;;;;5069933;28;9790;-79
2024/02/03 08:48:37;;;;;;;;;6.00;5.00;;;;;;;;5067568;28;9630;-79
2024/02/03 08:51:04;;;;;;;;;6.00;3.75;;;;;;;;5070080;28;9898;-79
2024/02/03 08:53:32;;;;;;;;;6.75;3.50;;;;;;;;5072068;28;9799;-75
2024/02/03 08:56:01;;;;;;;;;2.50;2.50;;;;;;;;5069890;28;9697;-79
2024/02/03 08:58:30;;;;;;;;;2.00;2.00;;;;;;;;5069748;28;9523;-80
2024/02/03 09:00:59;;;;;;;;;3.50;3.25;;;;;;;;5069654;28;9566;-79
2024/02/03 09:03:27;;;;;;;;;4.25;3.00;;;;;;;;5069532;28;9603;-80
2024/02/03 09:05:54;;;;;;;;;5.75;3.00;;;;;;;;5070641;28;9575;-83
2024/02/03 09:08:21;;;;;;;;;4.00;4.00;;;;;;;;5070759;28;9446;-80
2024/02/03 09:10:50;;;;;;;;;4.00;3.00;;;;;;;;5072090;28;9462;-74
2024/02/03 09:13:19;;;;;;;;;5.50;4.25;;;;;;;;5069498;28;9428;-79
2024/02/03 09:15:46;;;;;;;;;2.00;2.00;;;;;;;;5071963;28;9428;-80
2024/02/03 09:18:14;;;;;;;;;3.00;3.00;;;;;;;;5072604;28;10090;-78
2024/02/03 09:20:41;;;;;;;;;5.33;5.33;;;;;;;;5069650;28;9255;-79
2024/02/03 09:23:08;;;;;;;;;3.33;2.67;;;;;;;;5071252;28;9420;-79
2024/02/03 09:25:39;;;;;;;;;4.00;4.00;;;;;;;;5069234;28;9489;-76
2024/02/03 09:28:08;;;;;;;;;4.00;4.00;;;;;;;;5066024;28;9429;-76
2024/02/03 09:30:36;;;;;;;;;4.75;4.75;;;;;;;;5068513;28;9476;-74
2024/02/03 09:33:04;;;;;;;;;4.75;4.75;;;;;;;;5068773;28;10325;-75
2024/02/03 09:35:31;;;;;;;;;3.00;3.00;;;;;;;;5068529;28;9690;-79
2024/02/03 09:37:58;;;;;;;;;5.00;5.00;;;;;;;;5068377;28;9311;-81
2024/02/03 09:40:26;;;;;;;;;5.50;4.50;;;;;;;;5055676;28;9665;-82
2024/02/03 09:42:54;;;;;;;;;7.50;5.50;;;;;;;;5068202;28;9471;-73
2024/02/03 09:45:21;;;;;;;;;6.25;6.25;;;;;;;;5068332;28;9688;-74
2024/02/03 09:47:52;;;;;;;;;8.00;8.00;;;;;;;;5068584;28;9487;-75
2024/02/03 09:50:22;;;;;;;;;7.75;6.75;;;;;;;;5068147;28;9547;-76
2024/02/03 09:52:50;;;;;;;;;7.75;4.50;;;;;;;;5068819;28;9464;-76
2024/02/03 09:55:19;;;;;;;;;9.00;7.50;;;;;;;;5069365;28;9621;-77
2024/02/03 09:57:53;;;;;;;;;6.50;6.50;;;;;;;;5068540;28;9709;-76
2024/02/03 10:00:21;;;;;;;;;6.50;6.50;;;;;;;;5065866;28;9553;-76
2024/02/03 10:02:49;;;;;;;;;5.25;5.25;;;;;;;;5068280;28;9698;-73
2024/02/03 10:05:26;;;;;;;;;7.00;5.75;;;;;;;;5068144;28;9611;-74
2024/02/03 10:08:01;;;;;;;;;5.50;5.50;;;;;;;;5068106;28;9493;-77
2024/02/03 10:10:30;;;;;;;;;5.00;5.00;;;;;;;;5068683;28;9487;-78
2024/02/03 10:13:05;;;;;;;;;4.00;4.00;;;;;;;;5068122;28;9401;-75
2024/02/03 10:15:32;;;;;;;;;6.50;6.00;;;;;;;;5068476;28;9413;-81
2024/02/03 10:17:59;;;;;;;;;8.00;6.00;;;;;;;;5068171;28;9365;-79
2024/02/03 10:20:28;;;;;;;;;7.00;7.00;;;;;;;;5068546;28;9318;-75
2024/02/03 10:22:56;;;;;;;;;4.00;4.00;;;;;;;;5065724;28;9354;-75
2024/02/03 10:25:27;;;;;;;;;7.00;7.00;;;;;;;;5068661;28;9101;-75
2024/02/03 10:28:03;;;;;;;;;8.00;8.00;;;;;;;;5066754;28;9100;-74
2024/02/03 10:30:30;;;;;;;;;7.00;6.67;;;;;;;;5068071;28;9007;-79
2024/02/03 10:32:59;;;;;;;;;6.67;6.67;;;;;;;;5066022;28;9100;-74
2024/02/03 10:35:31;;;;;;;;;2.00;2.00;;;;;;;;5068674;28;9004;-77
2024/02/03 10:37:59;;;;;;;;;3.00;3.00;;;;;;;;5066875;28;8997;-77
2024/02/03 10:40:28;;;;;;;;;5.67;4.00;;;;;;;;5056049;28;9083;-79
2024/02/03 10:42:55;;;;;;;;;4.67;4.67;;;;;;;;5067084;28;8968;-78
2024/02/03 10:45:28;;;;;;;;;5.00;5.00;;;;;;;;5068038;28;8943;-77
2024/02/03 10:48:01;;;;;;;;;3.67;3.67;;;;;;;;5067768;28;9020;-77
2024/02/03 10:50:35;;;;;;;;;2.00;2.00;;;;;;;;5068804;28;9774;-77
2024/02/03 10:53:06;;;;;;;;;3.00;3.00;;;;;;;;5068423;28;9183;-79
2024/02/03 10:55:39;;;;;;;;;3.00;2.00;;;;;;;;5068911;28;9226;-76
2024/02/03 10:58:09;;;;;;;;;2.00;2.00;;;;;;;;5071462;28;8934;-78
2024/02/03 11:00:36;;;;;;;;;2.33;2.33;;;;;;;;5073486;28;8938;-75
2024/02/03 11:03:04;;;;;;;;;0.75;0.75;;;;;;;;5073343;28;8992;-74
2024/02/03 11:05:33;;;;;;;;;3.33;2.33;;;;;;;;5075896;28;8914;-76
2024/02/03 11:08:09;;;;;;;;;2.00;2.00;;;;;;;;5073836;28;9130;-78
2024/02/03 11:10:37;;;;;;;;;2.33;2.33;;;;;;;;5074810;28;9082;-75
2024/02/03 11:13:17;;;;;;;;;2.00;2.00;;;;;;;;5073575;28;9700;-77
2024/02/03 11:15:44;;;;;;;;;4.00;3.00;;;;;;;;5067906;28;9102;-75
2024/02/03 11:18:14;;;;;;;;;2.33;2.33;;;;;;;;5071145;28;9170;-75
2024/02/03 11:20:43;;;;;;;;;2.00;2.00;;;;;;;;5073626;28;9023;-75
2024/02/03 11:23:13;;;;;;;;;2.33;1.00;;;;;;;;5066473;28;9015;-76
2024/02/03 11:25:44;;;;;;;;;2.00;2.00;;;;;;;;5059689;28;9126;-80
2024/02/03 11:28:12;;;;;;;;;1.00;1.00;;;;;;;;5062386;28;9651;-76
2024/02/03 11:30:39;;;;;;;;;1.00;1.00;;;;;;;;5060087;28;8887;-78
2024/02/03 11:33:07;;;;;;;;;4.00;4.00;;;;;;;;5063918;28;8846;-78
2024/02/03 11:35:35;;;;;;;;;3.33;2.00;;;;;;;;5062872;28;9084;-74
2024/02/03 11:38:07;;;;;;;;;2.75;2.75;;;;;;;;5067470;28;8940;-76
2024/02/03 11:40:43;;;;;;;;;1.00;1.00;;;;;;;;5053825;28;8981;-78
2024/02/03 11:43:12;;;;;;;;;1.00;1.00;;;;;;;;5067470;28;8977;-75
2024/02/03 11:45:45;;;;;;;;;1.67;1.67;;;;;;;;5064349;28;8856;-75
2024/02/03 11:48:13;;;;;;;;;2.33;2.33;;;;;;;;5065734;28;9045;-74
2024/02/03 11:50:43;;;;;;;;;1.75;1.75;;;;;;;;5066196;28;9021;-75
2024/02/03 11:53:23;;;;;;;;;2.75;2.75;;;;;;;;5067471;28;8872;-76
2024/02/03 11:55:50;;;;;;;;;2.00;2.00;;;;;;;;5053891;28;8860;-76
2024/02/03 11:58:18;;;;;;;;;2.50;1.75;;;;;;;;5066320;28;8886;-75
2024/02/03 12:00:45;;;;;;;;;3.00;3.00;;;;;;;;5070484;28;8927;-76
2024/02/03 12:03:12;;;;;;;;;1.25;1.25;;;;;;;;5070265;28;8995;-75
2024/02/03 12:05:40;;;;;;;;;2.00;2.00;;;;;;;;5071486;28;8978;-75
2024/02/03 12:08:07;;;;;;;;;3.00;1.25;;;;;;;;5071377;28;8837;-75
2024/02/03 12:10:39;;;;;;;;;1.75;1.75;;;;;;;;5071019;28;8848;-75
2024/02/03 12:13:06;;;;;;;;;1.00;1.00;;;;;;;;5069964;28;8882;-75
2024/02/03 12:15:35;;;;;;;;;1.00;1.00;;;;;;;;5068690;28;9022;-78
2024/02/03 12:18:03;;;;;;;;;1.00;1.00;;;;;;;;5069927;28;8934;-74
2024/02/03 12:20:30;;;;;;;;;2.75;1.00;;;;;;;;5070591;28;8963;-76
2024/02/03 12:23:03;;;;;;;;;0.00;0.00;;;;;;;;5070471;28;8856;-78
2024/02/03 12:25:31;;;;;;;;;1.00;1.00;;;;;;;;5070421;28;8860;-78
2024/02/03 12:28:02;;;;;;;;;1.75;1.75;;;;;;;;5067171;28;8854;-74
2024/02/03 12:30:35;;;;;;;;;1.50;1.50;;;;;;;;5059404;28;8769;-77
2024/02/03 12:33:03;;;;;;;;;1.00;1.00;;;;;;;;5069283;28;8852;-77
2024/02/03 12:35:33;;;;;;;;;1.00;1.00;;;;;;;;5069591;28;8971;-75
2024/02/03 12:38:00;;;;;;;;;0.75;0.75;;;;;;;;5070063;28;8852;-77
2024/02/03 12:40:30;;;;;;;;;2.00;2.00;;;;;;;;5057682;28;9589;-74
2024/02/03 12:43:01;;;;;;;;;2.00;2.00;;;;;;;;5058926;28;8852;-75
2024/02/03 12:45:28;;;;;;;;;2.00;2.00;;;;;;;;5070957;28;8887;-74
2024/02/03 12:47:56;;;;;;;;;1.00;1.00;;;;;;;;5070969;28;8884;-76
2024/02/03 12:50:23;;;;;;;;;3.00;3.00;;;;;;;;5071216;28;8862;-76
2024/02/03 12:52:50;;;;;;;;;4.00;4.00;;;;;;;;5072325;28;8860;-77
2024/02/03 12:55:18;;;;;;;;;1.00;1.00;;;;;;;;5068913;28;8940;-77
2024/02/03 12:57:45;;;;;;;;;4.67;4.67;;;;;;;;5070627;28;8964;-81
2024/02/03 13:00:15;;;;;;;;;1.00;1.00;;;;;;;;5071011;28;9002;-74
2024/02/03 13:02:43;;;;;;;;;7.00;5.00;;;;;;;;5070587;28;9002;-74
2024/02/03 13:05:10;;;;;;;;;6.00;6.00;;;;;;;;5069236;28;9093;-72
2024/02/03 13:07:39;;;;;;;;;7.00;6.67;;;;;;;;5069849;28;9211;-73
2024/02/03 13:10:07;;;;;;;;;6.67;6.67;;;;;;;;5068450;28;9192;-75
2024/02/03 13:12:34;;;;;;;;;8.00;7.00;;;;;;;;5069680;28;9097;-73
2024/02/03 13:15:01;;;;;;;;;7.00;5.67;;;;;;;;5063343;28;9094;-74
2024/02/03 13:17:30;;;;;;;;;5.00;5.00;;;;;;;;5069597;28;9084;-73
2024/02/03 13:19:57;;;;;;;;;7.00;7.00;;;;;;;;5068514;28;9168;-72
2024/02/03 13:22:26;;;;;;;;;8.00;7.00;;;;;;;;5069542;28;9988;-74
2024/02/03 13:24:53;;;;;;;;;7.00;7.00;;;;;;;;5069195;28;9364;-74
2024/02/03 13:27:23;;;;;;;;;6.00;5.67;;;;;;;;5065467;28;9090;-77
2024/02/03 13:29:51;;;;;;;;;5.00;5.00;;;;;;;;5070533;28;9808;-73
2024/02/03 13:32:20;;;;;;;;;6.00;4.67;;;;;;;;5070495;28;8895;-73
2024/02/03 13:34:49;;;;;;;;;6.00;6.00;;;;;;;;5067029;28;9717;-73
2024/02/03 13:37:16;;;;;;;;;4.67;4.67;;;;;;;;5069525;28;9116;-74
2024/02/03 13:39:43;;;;;;;;;5.00;5.00;;;;;;;;5060409;28;8970;-74
2024/02/03 13:42:11;;;;;;;;;5.67;5.67;;;;;;;;5064745;28;9186;-73
2024/02/03 13:44:38;;;;;;;;;4.33;4.00;;;;;;;;5067322;28;9083;-74
2024/02/03 13:47:05;;;;;;;;;4.00;3.67;;;;;;;;5065506;28;9801;-73
2024/02/03 13:49:37;;;;;;;;;6.67;5.00;;;;;;;;5068956;28;8947;-74
2024/02/03 13:52:10;;;;;;;;;6.00;4.67;;;;;;;;5068065;28;9137;-78
2024/02/03 13:54:39;;;;;;;;;5.00;5.00;;;;;;;;5068930;28;9116;-73
2024/02/03 13:57:07;;;;;;;;;6.00;4.00;;;;;;;;5068124;28;9092;-75
2024/02/03 13:59:34;;;;;;;;;5.33;4.00;;;;;;;;5068556;28;9111;-75
2024/02/03 14:02:03;;;;;;;;;3.33;3.33;;;;;;;;5066895;28;8963;-77
2024/02/03 14:04:31;;;;;;;;;4.67;4.33;;;;;;;;5069483;28;9092;-76
2024/02/03 14:06:59;;;;;;;;;4.67;4.33;;;;;;;;5068380;28;9010;-76
2024/02/03 14:09:28;;;;;;;;;4.33;4.00;;;;;;;;5068430;28;9811;-73
2024/02/03 14:11:55;;;;;;;;;4.33;4.33;;;;;;;;5068255;28;9179;-74
2024/02/03 14:14:26;;;;;;;;;4.00;4.00;;;;;;;;5067488;28;9257;-75
2024/02/03 14:16:53;;;;;;;;;6.33;4.00;;;;;;;;5068404;28;9724;-72
2024/02/03 14:19:22;;;;;;;;;3.33;3.33;;;;;;;;5068323;28;9093;-75
2024/02/03 14:21:53;;;;;;;;;3.67;3.67;;;;;;;;5067836;28;9077;-76
2024/02/03 14:24:23;;;;;;;;;5.67;5.67;;;;;;;;5068387;28;9156;-78
2024/02/03 14:26:52;;;;;;;;;3.00;3.00;;;;;;;;5068954;28;10055;-75
2024/02/03 14:29:20;;;;;;;;;4.00;4.00;;;;;;;;5068499;28;9169;-77
2024/02/03 14:31:49;;;;;;;;;3.00;3.00;;;;;;;;5068581;28;10050;-77
2024/02/03 14:34:17;;;;;;;;;3.00;3.00;;;;;;;;5069343;28;9322;-78
2024/02/03 14:36:45;;;;;;;;;3.33;3.33;;;;;;;;5068537;28;9252;-79
2024/02/03 14:39:18;;;;;;;;;4.67;4.67;;;;;;;;5066073;28;9072;-76
2024/02/03 14:41:46;;;;;;;;;4.67;3.67;;;;;;;;5062436;28;9256;-78
2024/02/03 14:44:15;;;;;;;;;7.67;4.00;;;;;;;;5070348;28;9162;-78